sensor_id;sensor_type;location;lat;lon;timestamp;pressure;altitude;pressure_sealevel;temperature;humidity
39435;BME280;66825;51.880;-0.518;2023-06-10T00:00:47;100536.44;;;21.57;45.68
39435;BME280;66825;51.880;-0.518;2023-06-10T00:03:13;100538.31;;;21.56;45.75
39435;BME280;66825;51.880;-0.518;2023-06-10T00:05:38;100542.19;;;21.55;45.70
39435;BME280;66825;51.880;-0.518;2023-06-10T00:08:05;100462.16;;;21.06;45.82
39435;BME280;66825;51.880;-0.518;2023-06-10T00:10:34;100529.63;;;21.54;45.65
39435;BME280;66825;51.880;-0.518;2023-06-10T00:13:01;100537.84;;;21.54;45.70
39435;BME280;66825;51.880;-0.518;2023-06-10T00:15:27;100535.13;;;21.54;45.77
39435;BME280;66825;51.880;-0.518;2023-06-10T00:17:53;100537.03;;;21.54;45.66
39435;BME280;66825;51.880;-0.518;2023-06-10T00:20:20;100529.94;;;21.53;45.67
39435;BME280;66825;51.880;-0.518;2023-06-10T00:22:49;100531.06;;;21.52;45.67
39435;BME280;66825;51.880;-0.518;2023-06-10T00:25:15;100533.81;;;21.52;45.82
39435;BME280;66825;51.880;-0.518;2023-06-10T00:27:41;100519.00;;;21.44;45.62
39435;BME280;66825;51.880;-0.518;2023-06-10T00:30:07;100521.41;;;21.46;45.58
39435;BME280;66825;51.880;-0.518;2023-06-10T00:32:33;100523.19;;;21.50;45.67
39435;BME280;66825;51.880;-0.518;2023-06-10T00:34:59;100524.00;;;21.51;45.82
39435;BME280;66825;51.880;-0.518;2023-06-10T00:37:25;100521.56;;;21.49;45.76
39435;BME280;66825;51.880;-0.518;2023-06-10T00:39:50;100521.75;;;21.44;45.57
39435;BME280;66825;51.880;-0.518;2023-06-10T00:42:16;100513.34;;;21.49;45.54
39435;BME280;66825;51.880;-0.518;2023-06-10T00:44:42;100517.22;;;21.48;45.76
39435;BME280;66825;51.880;-0.518;2023-06-10T00:47:07;100499.00;;;21.35;45.63
39435;BME280;66825;51.880;-0.518;2023-06-10T00:49:33;100519.50;;;21.46;45.61
39435;BME280;66825;51.880;-0.518;2023-06-10T00:52:00;100510.13;;;21.47;45.54
39435;BME280;66825;51.880;-0.518;2023-06-10T00:54:26;100516.75;;;21.46;45.69
39435;BME280;66825;51.880;-0.518;2023-06-10T00:56:53;100512.06;;;21.47;45.86
39435;BME280;66825;51.880;-0.518;2023-06-10T00:59:18;100513.19;;;21.46;45.71
39435;BME280;66825;51.880;-0.518;2023-06-10T01:01:45;100501.44;;;21.45;45.78
39435;BME280;66825;51.880;-0.518;2023-06-10T01:04:13;100460.22;;;21.15;45.85
39435;BME280;66825;51.880;-0.518;2023-06-10T01:07:01;100447.31;;;21.07;45.51
39435;BME280;66825;51.880;-0.518;2023-06-10T01:12:39;100504.81;;;21.42;45.68
39435;BME280;66825;51.880;-0.518;2023-06-10T01:15:08;100507.53;;;21.42;45.62
39435;BME280;66825;51.880;-0.518;2023-06-10T01:17:52;100508.22;;;21.39;45.63
39435;BME280;66825;51.880;-0.518;2023-06-10T01:20:19;100428.50;;;20.88;45.58
39435;BME280;66825;51.880;-0.518;2023-06-10T01:22:44;100495.00;;;21.32;45.57
39435;BME280;66825;51.880;-0.518;2023-06-10T01:25:11;100505.47;;;21.39;45.61
39435;BME280;66825;51.880;-0.518;2023-06-10T01:27:38;100497.25;;;21.39;45.65
39435;BME280;66825;51.880;-0.518;2023-06-10T01:30:14;100494.50;;;21.39;45.63
39435;BME280;66825;51.880;-0.518;2023-06-10T01:32:50;100479.69;;;21.31;45.63
39435;BME280;66825;51.880;-0.518;2023-06-10T01:35:16;100491.78;;;21.39;45.76
39435;BME280;66825;51.880;-0.518;2023-06-10T01:37:46;100487.41;;;21.38;45.66
39435;BME280;66825;51.880;-0.518;2023-06-10T01:40:12;100489.34;;;21.37;45.62
39435;BME280;66825;51.880;-0.518;2023-06-10T01:42:38;100491.28;;;21.37;45.53
39435;BME280;66825;51.880;-0.518;2023-06-10T01:45:04;100490.50;;;21.36;45.64
39435;BME280;66825;51.880;-0.518;2023-06-10T01:47:29;100486.13;;;21.35;45.55
39435;BME280;66825;51.880;-0.518;2023-06-10T01:49:55;100462.47;;;21.22;45.57
39435;BME280;66825;51.880;-0.518;2023-06-10T01:52:20;100493.53;;;21.35;45.48
39435;BME280;66825;51.880;-0.518;2023-06-10T01:54:46;100424.16;;;20.96;45.73
39435;BME280;66825;51.880;-0.518;2023-06-10T01:57:11;100482.13;;;21.33;45.46
39435;BME280;66825;51.880;-0.518;2023-06-10T01:59:37;100413.34;;;20.90;45.83
39435;BME280;66825;51.880;-0.518;2023-06-10T02:02:04;100484.84;;;21.33;45.62
39435;BME280;66825;51.880;-0.518;2023-06-10T02:04:29;100476.16;;;21.31;45.55
39435;BME280;66825;51.880;-0.518;2023-06-10T02:06:55;100489.50;;;21.32;45.53
39435;BME280;66825;51.880;-0.518;2023-06-10T02:09:21;100477.75;;;21.32;45.66
39435;BME280;66825;51.880;-0.518;2023-06-10T02:11:48;100487.09;;;21.31;45.59
39435;BME280;66825;51.880;-0.518;2023-06-10T02:14:14;100472.75;;;21.25;45.27
39435;BME280;66825;51.880;-0.518;2023-06-10T02:16:40;100472.59;;;21.30;45.56
39435;BME280;66825;51.880;-0.518;2023-06-10T02:19:05;100428.63;;;21.00;45.71
39435;BME280;66825;51.880;-0.518;2023-06-10T02:21:32;100419.31;;;20.92;45.67
39435;BME280;66825;51.880;-0.518;2023-06-10T02:24:00;100460.38;;;21.19;45.42
39435;BME280;66825;51.880;-0.518;2023-06-10T02:26:25;100481.13;;;21.29;45.60
39435;BME280;66825;51.880;-0.518;2023-06-10T02:28:51;100477.59;;;21.28;45.48
39435;BME280;66825;51.880;-0.518;2023-06-10T02:31:17;100473.25;;;21.27;45.61
39435;BME280;66825;51.880;-0.518;2023-06-10T02:33:43;100468.91;;;21.26;45.48
39435;BME280;66825;51.880;-0.518;2023-06-10T02:36:10;100470.50;;;21.27;45.52
39435;BME280;66825;51.880;-0.518;2023-06-10T02:38:39;100471.63;;;21.26;45.82
39435;BME280;66825;51.880;-0.518;2023-06-10T02:41:05;100471.63;;;21.26;45.71
39435;BME280;66825;51.880;-0.518;2023-06-10T02:43:31;100468.09;;;21.25;45.53
39435;BME280;66825;51.880;-0.518;2023-06-10T02:45:56;100459.88;;;21.25;45.35
39435;BME280;66825;51.880;-0.518;2023-06-10T02:48:24;100461.34;;;21.14;45.48
39435;BME280;66825;51.880;-0.518;2023-06-10T02:50:49;100464.06;;;21.23;45.46
39435;BME280;66825;51.880;-0.518;2023-06-10T02:53:14;100468.41;;;21.24;45.58
39435;BME280;66825;51.880;-0.518;2023-06-10T02:55:40;100455.84;;;21.14;45.62
39435;BME280;66825;51.880;-0.518;2023-06-10T02:58:06;100446.19;;;21.08;45.68
39435;BME280;66825;51.880;-0.518;2023-06-10T03:00:32;100451.50;;;21.13;45.68
39435;BME280;66825;51.880;-0.518;2023-06-10T03:02:58;100472.28;;;21.23;45.49
39435;BME280;66825;51.880;-0.518;2023-06-10T03:05:25;100469.06;;;21.21;45.54
39435;BME280;66825;51.880;-0.518;2023-06-10T03:07:51;100458.91;;;21.21;45.52
39435;BME280;66825;51.880;-0.518;2023-06-10T03:10:16;100450.53;;;21.18;45.51
39435;BME280;66825;51.880;-0.518;2023-06-10T03:12:42;100460.03;;;21.20;45.45
39435;BME280;66825;51.880;-0.518;2023-06-10T03:15:08;100459.88;;;21.17;45.61
39435;BME280;66825;51.880;-0.518;2023-06-10T03:17:33;100451.03;;;21.20;45.50
39435;BME280;66825;51.880;-0.518;2023-06-10T03:19:58;100436.22;;;21.03;45.48
39435;BME280;66825;51.880;-0.518;2023-06-10T03:22:24;100384.34;;;20.72;45.34
39435;BME280;66825;51.880;-0.518;2023-06-10T03:24:49;100460.03;;;21.20;45.44
39435;BME280;66825;51.880;-0.518;2023-06-10T03:27:15;100443.47;;;21.08;45.61
39435;BME280;66825;51.880;-0.518;2023-06-10T03:29:41;100457.97;;;21.17;45.60
39435;BME280;66825;51.880;-0.518;2023-06-10T03:32:07;100458.75;;;21.18;45.57
39435;BME280;66825;51.880;-0.518;2023-06-10T03:34:33;100462.63;;;21.17;45.40
39435;BME280;66825;51.880;-0.518;2023-06-10T03:36:59;100464.22;;;21.18;45.63
39435;BME280;66825;51.880;-0.518;2023-06-10T03:39:26;100440.06;;;21.02;45.41
39435;BME280;66825;51.880;-0.518;2023-06-10T03:41:54;100436.38;;;21.07;45.59
39435;BME280;66825;51.880;-0.518;2023-06-10T03:44:21;100457.47;;;21.15;45.58
39435;BME280;66825;51.880;-0.518;2023-06-10T03:46:46;100449.25;;;21.15;45.72
39435;BME280;66825;51.880;-0.518;2023-06-10T03:49:12;100454.09;;;21.09;45.35
39435;BME280;66825;51.880;-0.518;2023-06-10T03:51:38;100459.41;;;21.15;45.62
39435;BME280;66825;51.880;-0.518;2023-06-10T03:54:04;100453.75;;;21.11;45.43
39435;BME280;66825;51.880;-0.518;2023-06-10T03:56:29;100462.47;;;21.13;45.56
39435;BME280;66825;51.880;-0.518;2023-06-10T03:58:54;100464.06;;;21.14;45.66
39435;BME280;66825;51.880;-0.518;2023-06-10T04:01:21;100462.47;;;21.13;45.47
39435;BME280;66825;51.880;-0.518;2023-06-10T04:03:47;100462.78;;;21.12;45.37
39435;BME280;66825;51.880;-0.518;2023-06-10T04:06:14;100454.91;;;21.10;45.54
39435;BME280;66825;51.880;-0.518;2023-06-10T04:08:41;100466.31;;;21.12;45.58
39435;BME280;66825;51.880;-0.518;2023-06-10T04:11:08;100465.53;;;21.12;45.59
39435;BME280;66825;51.880;-0.518;2023-06-10T04:13:34;100459.56;;;21.09;45.43
39435;BME280;66825;51.880;-0.518;2023-06-10T04:15:59;100466.66;;;21.10;45.33
39435;BME280;66825;51.880;-0.518;2023-06-10T04:18:25;100463.91;;;21.10;45.41
39435;BME280;66825;51.880;-0.518;2023-06-10T04:20:51;100465.03;;;21.09;45.64
39435;BME280;66825;51.880;-0.518;2023-06-10T04:23:16;100464.25;;;21.09;45.51
39435;BME280;66825;51.880;-0.518;2023-06-10T04:25:42;100467.78;;;21.09;45.69
39435;BME280;66825;51.880;-0.518;2023-06-10T04:28:08;100468.91;;;21.08;45.53
39435;BME280;66825;51.880;-0.518;2023-06-10T04:30:33;100452.81;;;20.98;45.50
39435;BME280;66825;51.880;-0.518;2023-06-10T04:32:59;100461.81;;;21.07;45.54
39435;BME280;66825;51.880;-0.518;2023-06-10T04:35:24;100439.75;;;20.95;45.57
39435;BME280;66825;51.880;-0.518;2023-06-10T04:37:53;100446.84;;;20.96;45.56
39435;BME280;66825;51.880;-0.518;2023-06-10T04:40:19;100463.75;;;21.07;45.53
39435;BME280;66825;51.880;-0.518;2023-06-10T04:42:45;100454.75;;;21.06;45.38
39435;BME280;66825;51.880;-0.518;2023-06-10T04:45:10;100460.22;;;21.06;45.56
39435;BME280;66825;51.880;-0.518;2023-06-10T04:47:36;100458.28;;;21.07;45.65
39435;BME280;66825;51.880;-0.518;2023-06-10T04:50:03;100468.44;;;21.06;45.53
39435;BME280;66825;51.880;-0.518;2023-06-10T04:52:30;100456.66;;;21.06;45.54
39435;BME280;66825;51.880;-0.518;2023-06-10T04:54:57;100447.66;;;21.05;45.38
39435;BME280;66825;51.880;-0.518;2023-06-10T04:57:23;100426.41;;;20.93;45.67
39435;BME280;66825;51.880;-0.518;2023-06-10T04:59:49;100435.25;;;20.90;45.31
39435;BME280;66825;51.880;-0.518;2023-06-10T05:02:14;100445.22;;;21.04;45.54
39435;BME280;66825;51.880;-0.518;2023-06-10T05:04:39;100450.69;;;21.04;45.42
39435;BME280;66825;51.880;-0.518;2023-06-10T05:07:05;100448.28;;;21.02;45.56
39435;BME280;66825;51.880;-0.518;2023-06-10T05:09:31;100433.16;;;20.96;45.61
39435;BME280;66825;51.880;-0.518;2023-06-10T05:11:56;100445.88;;;21.01;45.56
39435;BME280;66825;51.880;-0.518;2023-06-10T05:14:22;100452.97;;;21.02;45.52
39435;BME280;66825;51.880;-0.518;2023-06-10T05:16:48;100428.00;;;20.94;45.50
39435;BME280;66825;51.880;-0.518;2023-06-10T05:19:13;100450.88;;;20.99;45.66
39435;BME280;66825;51.880;-0.518;2023-06-10T05:21:39;100465.06;;;21.01;45.48
39435;BME280;66825;51.880;-0.518;2023-06-10T05:24:04;100437.03;;;20.86;45.40
39435;BME280;66825;51.880;-0.518;2023-06-10T05:26:30;100451.03;;;20.93;45.30
39435;BME280;66825;51.880;-0.518;2023-06-10T05:28:58;100458.75;;;21.00;45.76
39435;BME280;66825;51.880;-0.518;2023-06-10T05:31:24;100451.69;;;20.99;45.36
39435;BME280;66825;51.880;-0.518;2023-06-10T05:33:49;100437.19;;;20.90;45.51
39435;BME280;66825;51.880;-0.518;2023-06-10T05:36:15;100456.34;;;20.99;45.68
39435;BME280;66825;51.880;-0.518;2023-06-10T05:38:40;100456.34;;;20.99;45.50
39435;BME280;66825;51.880;-0.518;2023-06-10T05:41:06;100454.28;;;20.96;45.48
39435;BME280;66825;51.880;-0.518;2023-06-10T05:43:31;100454.72;;;20.98;45.50
39435;BME280;66825;51.880;-0.518;2023-06-10T05:45:57;100435.41;;;20.85;45.27
39435;BME280;66825;51.880;-0.518;2023-06-10T05:48:22;100454.72;;;20.98;45.55
39435;BME280;66825;51.880;-0.518;2023-06-10T05:50:48;100444.91;;;20.88;45.48
39435;BME280;66825;51.880;-0.518;2023-06-10T05:53:16;100455.06;;;20.96;45.55
39435;BME280;66825;51.880;-0.518;2023-06-10T05:55:45;100411.22;;;20.70;45.46
39435;BME280;66825;51.880;-0.518;2023-06-10T05:58:12;100460.88;;;20.94;45.57
39435;BME280;66825;51.880;-0.518;2023-06-10T06:00:38;100458.13;;;20.94;45.50
39435;BME280;66825;51.880;-0.518;2023-06-10T06:03:09;100450.38;;;20.88;45.59
39435;BME280;66825;51.880;-0.518;2023-06-10T06:05:35;100458.44;;;20.93;45.51
39435;BME280;66825;51.880;-0.518;2023-06-10T06:08:05;100459.25;;;20.93;45.50
39435;BME280;66825;51.880;-0.518;2023-06-10T06:10:31;100444.09;;;20.78;45.56
39435;BME280;66825;51.880;-0.518;2023-06-10T06:12:57;100460.38;;;20.92;45.50
39435;BME280;66825;51.880;-0.518;2023-06-10T06:15:22;100457.66;;;20.92;45.55
39435;BME280;66825;51.880;-0.518;2023-06-10T06:17:48;100458.78;;;20.91;45.45
39435;BME280;66825;51.880;-0.518;2023-06-10T06:20:13;100473.59;;;20.90;45.36
39435;BME280;66825;51.880;-0.518;2023-06-10T06:22:39;100459.59;;;20.92;45.53
39435;BME280;66825;51.880;-0.518;2023-06-10T06:25:05;100456.03;;;20.91;45.32
39435;BME280;66825;51.880;-0.518;2023-06-10T06:27:31;100451.69;;;20.82;45.47
39435;BME280;66825;51.880;-0.518;2023-06-10T06:29:56;100402.22;;;20.60;45.37
39435;BME280;66825;51.880;-0.518;2023-06-10T06:32:22;100457.16;;;20.90;45.59
39435;BME280;66825;51.880;-0.518;2023-06-10T06:34:48;100448.47;;;20.88;45.33
39435;BME280;66825;51.880;-0.518;2023-06-10T06:37:20;100458.78;;;20.91;45.18
39435;BME280;66825;51.880;-0.518;2023-06-10T06:39:46;100451.69;;;20.90;45.36
39435;BME280;66825;51.880;-0.518;2023-06-10T06:42:11;100458.28;;;20.89;45.44
39435;BME280;66825;51.880;-0.518;2023-06-10T06:44:37;100448.16;;;20.81;45.48
39435;BME280;66825;51.880;-0.518;2023-06-10T06:47:02;100464.56;;;20.90;45.41
39435;BME280;66825;51.880;-0.518;2023-06-10T06:49:28;100452.19;;;20.84;45.33
39435;BME280;66825;51.880;-0.518;2023-06-10T06:51:53;100465.69;;;20.89;45.41
39435;BME280;66825;51.880;-0.518;2023-06-10T06:54:19;100467.66;;;20.88;45.49
39435;BME280;66825;51.880;-0.518;2023-06-10T06:56:44;100454.09;;;20.83;45.25
39435;BME280;66825;51.880;-0.518;2023-06-10T06:59:10;100438.97;;;20.77;45.32
39435;BME280;66825;51.880;-0.518;2023-06-10T07:01:35;100448.47;;;20.88;45.45
39435;BME280;66825;51.880;-0.518;2023-06-10T07:04:01;100460.56;;;20.87;45.42
39435;BME280;66825;51.880;-0.518;2023-06-10T07:06:26;100368.06;;;20.31;45.47
39435;BME280;66825;51.880;-0.518;2023-06-10T07:08:52;100449.91;;;20.86;45.53
39435;BME280;66825;51.880;-0.518;2023-06-10T07:11:17;100454.25;;;20.87;45.38
39435;BME280;66825;51.880;-0.518;2023-06-10T07:13:43;100459.72;;;20.87;45.45
39435;BME280;66825;51.880;-0.518;2023-06-10T07:16:08;100450.91;;;20.81;45.54
39435;BME280;66825;51.880;-0.518;2023-06-10T07:18:33;100453.47;;;20.86;45.37
39435;BME280;66825;51.880;-0.518;2023-06-10T07:20:59;100463.91;;;20.84;45.36
39435;BME280;66825;51.880;-0.518;2023-06-10T07:23:24;100461.19;;;20.84;45.33
39435;BME280;66825;51.880;-0.518;2023-06-10T07:25:50;100464.41;;;20.86;45.37
39435;BME280;66825;51.880;-0.518;2023-06-10T07:28:15;100458.94;;;20.86;45.36
39435;BME280;66825;51.880;-0.518;2023-06-10T07:30:41;100459.28;;;20.85;45.15
39435;BME280;66825;51.880;-0.518;2023-06-10T07:33:06;100455.38;;;20.86;45.19
39435;BME280;66825;51.880;-0.518;2023-06-10T07:35:33;100457.31;;;20.85;45.24
39435;BME280;66825;51.880;-0.518;2023-06-10T07:37:58;100404.16;;;20.51;45.63
39435;BME280;66825;51.880;-0.518;2023-06-10T07:40:24;100462.00;;;20.85;45.33
39435;BME280;66825;51.880;-0.518;2023-06-10T07:42:49;100462.81;;;20.85;45.33
39435;BME280;66825;51.880;-0.518;2023-06-10T07:45:15;100463.13;;;20.84;45.51
39435;BME280;66825;51.880;-0.518;2023-06-10T07:47:42;100450.56;;;20.83;45.49
39435;BME280;66825;51.880;-0.518;2023-06-10T07:50:08;100452.97;;;20.84;45.50
39435;BME280;66825;51.880;-0.518;2023-06-10T07:52:34;100461.19;;;20.84;45.17
39435;BME280;66825;51.880;-0.518;2023-06-10T07:54:59;100458.44;;;20.84;45.29
39435;BME280;66825;51.880;-0.518;2023-06-10T07:57:25;100459.28;;;20.85;45.26
39435;BME280;66825;51.880;-0.518;2023-06-10T07:59:50;100432.34;;;20.69;45.32
39435;BME280;66825;51.880;-0.518;2023-06-10T08:02:16;100402.38;;;20.46;45.12
39435;BME280;66825;51.880;-0.518;2023-06-10T08:04:41;100391.91;;;20.40;45.19
39435;BME280;66825;51.880;-0.518;2023-06-10T08:07:07;100469.41;;;20.84;45.29
39435;BME280;66825;51.880;-0.518;2023-06-10T08:09:32;100453.63;;;20.81;45.05
39435;BME280;66825;51.880;-0.518;2023-06-10T08:11:58;100466.66;;;20.84;45.30
39435;BME280;66825;51.880;-0.518;2023-06-10T08:14:23;100453.31;;;20.74;45.25
39435;BME280;66825;51.880;-0.518;2023-06-10T08:16:49;100465.88;;;20.84;45.22
39435;BME280;66825;51.880;-0.518;2023-06-10T08:19:14;100459.56;;;20.83;45.44
39435;BME280;66825;51.880;-0.518;2023-06-10T08:21:40;100465.03;;;20.83;45.28
39435;BME280;66825;51.880;-0.518;2023-06-10T08:24:06;100454.25;;;20.78;45.26
39435;BME280;66825;51.880;-0.518;2023-06-10T08:26:32;100459.91;;;20.82;45.28
39435;BME280;66825;51.880;-0.518;2023-06-10T08:28:57;100466.16;;;20.82;45.13
39435;BME280;66825;51.880;-0.518;2023-06-10T08:31:23;100457.00;;;20.78;45.25
39435;BME280;66825;51.880;-0.518;2023-06-10T08:33:48;100461.50;;;20.83;45.25
39435;BME280;66825;51.880;-0.518;2023-06-10T08:36:14;100457.16;;;20.82;45.41
39435;BME280;66825;51.880;-0.518;2023-06-10T08:38:40;100466.16;;;20.82;45.26
39435;BME280;66825;51.880;-0.518;2023-06-10T08:41:06;100463.75;;;20.81;45.23
39435;BME280;66825;51.880;-0.518;2023-06-10T08:43:59;100472.81;;;20.81;45.13
39435;BME280;66825;51.880;-0.518;2023-06-10T08:46:31;100475.53;;;20.81;45.06
39435;BME280;66825;51.880;-0.518;2023-06-10T08:49:01;100478.28;;;20.81;45.13
39435;BME280;66825;51.880;-0.518;2023-06-10T08:51:29;100469.25;;;20.81;45.24
39435;BME280;66825;51.880;-0.518;2023-06-10T08:54:04;100412.16;;;20.39;45.28
39435;BME280;66825;51.880;-0.518;2023-06-10T08:56:32;100462.81;;;20.76;45.22
39435;BME280;66825;51.880;-0.518;2023-06-10T08:59:02;100471.97;;;20.81;45.55
39435;BME280;66825;51.880;-0.518;2023-06-10T09:01:28;100474.72;;;20.81;45.32
39435;BME280;66825;51.880;-0.518;2023-06-10T09:03:54;100464.25;;;20.74;45.42
39435;BME280;66825;51.880;-0.518;2023-06-10T09:06:20;100473.91;;;20.80;45.27
39435;BME280;66825;51.880;-0.518;2023-06-10T09:08:46;100468.91;;;20.73;45.43
39435;BME280;66825;51.880;-0.518;2023-06-10T09:11:11;100476.66;;;20.80;45.17
39435;BME280;66825;51.880;-0.518;2023-06-10T09:13:37;100474.56;;;20.77;45.38
39435;BME280;66825;51.880;-0.518;2023-06-10T09:16:02;100486.78;;;20.79;45.51
39435;BME280;66825;51.880;-0.518;2023-06-10T09:18:28;100484.88;;;20.80;45.38
39435;BME280;66825;51.880;-0.518;2023-06-10T09:20:54;100481.31;;;20.79;45.31
39435;BME280;66825;51.880;-0.518;2023-06-10T09:23:19;100471.66;;;20.73;45.33
39435;BME280;66825;51.880;-0.518;2023-06-10T09:25:45;100484.88;;;20.80;45.36
39435;BME280;66825;51.880;-0.518;2023-06-10T09:28:14;100477.78;;;20.79;44.93
39435;BME280;66825;51.880;-0.518;2023-06-10T09:30:41;100475.84;;;20.79;45.40
39435;BME280;66825;51.880;-0.518;2023-06-10T09:33:11;100475.03;;;20.79;45.21
39435;BME280;66825;51.880;-0.518;2023-06-10T09:35:45;100486.00;;;20.79;45.26
39435;BME280;66825;51.880;-0.518;2023-06-10T09:38:10;100477.63;;;20.75;45.25
39435;BME280;66825;51.880;-0.518;2023-06-10T09:40:51;100483.88;;;20.76;45.29
39435;BME280;66825;51.880;-0.518;2023-06-10T09:43:17;100484.06;;;20.79;45.23
39435;BME280;66825;51.880;-0.518;2023-06-10T09:45:43;100466.81;;;20.70;45.22
39435;BME280;66825;51.880;-0.518;2023-06-10T09:48:09;100482.75;;;20.77;45.36
39435;BME280;66825;51.880;-0.518;2023-06-10T09:50:34;100474.06;;;20.75;45.29
39435;BME280;66825;51.880;-0.518;2023-06-10T09:53:00;100460.00;;;20.68;45.25
39435;BME280;66825;51.880;-0.518;2023-06-10T09:55:27;100481.97;;;20.76;45.17
39435;BME280;66825;51.880;-0.518;2023-06-10T09:57:54;100474.22;;;20.78;45.20
39435;BME280;66825;51.880;-0.518;2023-06-10T10:00:21;100470.69;;;20.78;45.27
39435;BME280;66825;51.880;-0.518;2023-06-10T10:02:52;100470.69;;;20.78;45.43
39435;BME280;66825;51.880;-0.518;2023-06-10T10:05:22;100454.53;;;20.68;45.37
39435;BME280;66825;51.880;-0.518;2023-06-10T10:07:48;100469.06;;;20.77;45.21
39435;BME280;66825;51.880;-0.518;2023-06-10T10:10:15;100467.16;;;20.77;45.26
39435;BME280;66825;51.880;-0.518;2023-06-10T10:12:42;100467.94;;;20.78;45.34
39435;BME280;66825;51.880;-0.518;2023-06-10T10:15:10;100469.91;;;20.77;45.41
39435;BME280;66825;51.880;-0.518;2023-06-10T10:17:40;100451.81;;;20.68;45.35
39435;BME280;66825;51.880;-0.518;2023-06-10T10:20:12;100453.91;;;20.71;45.72
39435;BME280;66825;51.880;-0.518;2023-06-10T10:22:39;100467.94;;;20.78;45.31
39435;BME280;66825;51.880;-0.518;2023-06-10T10:25:17;100469.06;;;20.77;45.40
39435;BME280;66825;51.880;-0.518;2023-06-10T10:27:52;100471.81;;;20.77;45.26
39435;BME280;66825;51.880;-0.518;2023-06-10T10:30:20;100456.47;;;20.67;45.31
39435;BME280;66825;51.880;-0.518;2023-06-10T10:33:04;100472.63;;;20.77;45.48
39435;BME280;66825;51.880;-0.518;2023-06-10T10:35:30;100469.06;;;20.77;45.31
39435;BME280;66825;51.880;-0.518;2023-06-10T10:37:58;100447.78;;;20.65;45.25
39435;BME280;66825;51.880;-0.518;2023-06-10T10:40:24;100426.34;;;20.50;45.15
39435;BME280;66825;51.880;-0.518;2023-06-10T10:42:51;100466.34;;;20.77;45.39
39435;BME280;66825;51.880;-0.518;2023-06-10T10:45:17;100452.28;;;20.70;45.60
39435;BME280;66825;51.880;-0.518;2023-06-10T10:47:45;100453.47;;;20.77;45.34
39435;BME280;66825;51.880;-0.518;2023-06-10T10:50:16;100404.47;;;20.41;45.35
39435;BME280;66825;51.880;-0.518;2023-06-10T10:52:59;100461.97;;;20.76;45.17
39435;BME280;66825;51.880;-0.518;2023-06-10T10:55:27;100393.03;;;20.39;45.44
39435;BME280;66825;51.880;-0.518;2023-06-10T10:58:03;100448.00;;;20.77;45.43
39435;BME280;66825;51.880;-0.518;2023-06-10T11:03:07;100430.22;;;20.66;44.98
39435;BME280;66825;51.880;-0.518;2023-06-10T11:08:02;100446.50;;;20.71;45.47
39435;BME280;66825;51.880;-0.518;2023-06-10T11:10:30;100443.66;;;20.76;45.41
39435;BME280;66825;51.880;-0.518;2023-06-10T11:12:56;100444.75;;;20.75;45.44
39435;BME280;66825;51.880;-0.518;2023-06-10T11:15:29;100442.81;;;20.76;45.31
39435;BME280;66825;51.880;-0.518;2023-06-10T11:18:11;100437.34;;;20.76;45.43
39435;BME280;66825;51.880;-0.518;2023-06-10T11:26:15;100426.41;;;20.76;45.40
39435;BME280;66825;51.880;-0.518;2023-06-10T11:29:00;100427.69;;;20.78;45.48
39435;BME280;66825;51.880;-0.518;2023-06-10T11:31:31;100422.34;;;20.82;45.84
39435;BME280;66825;51.880;-0.518;2023-06-10T11:33:59;100393.19;;;20.69;46.24
39435;BME280;66825;51.880;-0.518;2023-06-10T11:36:26;100413.19;;;20.87;48.10
39435;BME280;66825;51.880;-0.518;2023-06-10T11:39:02;100405.28;;;20.94;50.15
39435;BME280;66825;51.880;-0.518;2023-06-10T11:41:29;100401.88;;;21.06;53.65
39435;BME280;66825;51.880;-0.518;2023-06-10T11:43:57;100359.38;;;20.82;54.80
39435;BME280;66825;51.880;-0.518;2023-06-10T11:46:23;100385.47;;;21.15;54.88
39435;BME280;66825;51.880;-0.518;2023-06-10T11:48:52;100398.25;;;21.40;54.69
39435;BME280;66825;51.880;-0.518;2023-06-10T11:51:18;100393.22;;;21.51;54.47
39435;BME280;66825;51.880;-0.518;2023-06-10T11:53:45;100403.72;;;21.58;54.83
39435;BME280;66825;51.880;-0.518;2023-06-10T11:56:10;100395.44;;;21.67;54.15
39435;BME280;66825;51.880;-0.518;2023-06-10T11:58:36;100394.97;;;21.65;52.87
39435;BME280;66825;51.880;-0.518;2023-06-10T12:01:01;100394.97;;;21.65;51.55
39435;BME280;66825;51.880;-0.518;2023-06-10T12:03:35;100399.66;;;21.64;51.07
39435;BME280;66825;51.880;-0.518;2023-06-10T12:06:04;100397.22;;;21.63;50.41
39435;BME280;66825;51.880;-0.518;2023-06-10T12:08:31;100394.03;;;21.61;49.80
39435;BME280;66825;51.880;-0.518;2023-06-10T12:10:57;100392.41;;;21.60;49.71
39435;BME280;66825;51.880;-0.518;2023-06-10T12:13:26;100395.50;;;21.58;49.78
39435;BME280;66825;51.880;-0.518;2023-06-10T12:15:52;100389.50;;;21.56;49.76
39435;BME280;66825;51.880;-0.518;2023-06-10T12:18:22;100396.91;;;21.55;49.38
39435;BME280;66825;51.880;-0.518;2023-06-10T12:20:48;100391.75;;;21.54;49.47
39435;BME280;66825;51.880;-0.518;2023-06-10T12:23:16;100383.53;;;21.54;49.21
39435;BME280;66825;51.880;-0.518;2023-06-10T12:25:55;100390.47;;;21.51;49.26
39435;BME280;66825;51.880;-0.518;2023-06-10T12:28:21;100390.97;;;21.53;49.20
39435;BME280;66825;51.880;-0.518;2023-06-10T12:30:47;100391.28;;;21.52;49.01
39435;BME280;66825;51.880;-0.518;2023-06-10T12:33:21;100371.50;;;21.46;48.93
39435;BME280;66825;51.880;-0.518;2023-06-10T12:35:48;100375.16;;;21.50;48.89
39435;BME280;66825;51.880;-0.518;2023-06-10T12:38:14;100378.72;;;21.51;48.79
39435;BME280;66825;51.880;-0.518;2023-06-10T12:40:46;100375.16;;;21.50;48.85
39435;BME280;66825;51.880;-0.518;2023-06-10T12:43:12;100367.78;;;21.42;48.83
39435;BME280;66825;51.880;-0.518;2023-06-10T12:45:40;100377.75;;;21.47;48.79
39435;BME280;66825;51.880;-0.518;2023-06-10T12:50:40;100376.63;;;21.48;48.56
39435;BME280;66825;51.880;-0.518;2023-06-10T12:53:06;100369.53;;;21.47;48.66
39435;BME280;66825;51.880;-0.518;2023-06-10T12:55:32;100366.00;;;21.46;48.48